sensor_id;sensor_type;location;lat;lon;timestamp;temperature;humidity
45735;DHT22;31446;49.632;8.328;2023-05-15T00:10:36;13.40;99.90
45735;DHT22;31446;49.632;8.328;2023-05-15T00:25:43;13.60;99.90
45735;DHT22;31446;49.632;8.328;2023-05-15T00:40:55;13.50;99.90
45735;DHT22;31446;49.632;8.328;2023-05-15T00:56:05;13.50;99.90
45735;DHT22;31446;49.632;8.328;2023-05-15T01:11:16;13.20;99.90
45735;DHT22;31446;49.632;8.328;2023-05-15T01:26:39;13.10;99.90
45735;DHT22;31446;49.632;8.328;2023-05-15T01:41:58;13.10;99.90
45735;DHT22;31446;49.632;8.328;2023-05-15T01:57:08;13.00;99.90
45735;DHT22;31446;49.632;8.328;2023-05-15T02:12:15;12.70;99.90
45735;DHT22;31446;49.632;8.328;2023-05-15T02:27:25;12.40;99.90
45735;DHT22;31446;49.632;8.328;2023-05-15T02:42:32;12.30;99.90
45735;DHT22;31446;49.632;8.328;2023-05-15T02:57:40;12.20;99.90
45735;DHT22;31446;49.632;8.328;2023-05-15T03:12:46;11.90;99.90
45735;DHT22;31446;49.632;8.328;2023-05-15T03:27:57;11.60;99.90
45735;DHT22;31446;49.632;8.328;2023-05-15T03:43:05;11.40;99.90
45735;DHT22;31446;49.632;8.328;2023-05-15T03:58:12;11.30;99.90
45735;DHT22;31446;49.632;8.328;2023-05-15T04:13:25;11.50;99.90
45735;DHT22;31446;49.632;8.328;2023-05-15T04:28:32;11.30;99.90
45735;DHT22;31446;49.632;8.328;2023-05-15T04:43:54;11.50;99.90
45735;DHT22;31446;49.632;8.328;2023-05-15T04:59:13;11.70;99.90
45735;DHT22;31446;49.632;8.328;2023-05-15T05:14:23;13.10;99.90
45735;DHT22;31446;49.632;8.328;2023-05-15T05:45:12;14.10;99.90
45735;DHT22;31446;49.632;8.328;2023-05-15T06:00:21;14.60;99.90
45735;DHT22;31446;49.632;8.328;2023-05-15T06:15:30;16.00;99.90
45735;DHT22;31446;49.632;8.328;2023-05-15T06:30:37;16.20;99.90
45735;DHT22;31446;49.632;8.328;2023-05-15T06:45:44;16.50;99.90
45735;DHT22;31446;49.632;8.328;2023-05-15T07:00:50;16.30;99.90
45735;DHT22;31446;49.632;8.328;2023-05-15T07:15:57;17.50;99.90
45735;DHT22;31446;49.632;8.328;2023-05-15T07:31:07;18.30;99.90
45735;DHT22;31446;49.632;8.328;2023-05-15T07:46:14;19.50;99.90
45735;DHT22;31446;49.632;8.328;2023-05-15T08:01:20;19.80;99.90
45735;DHT22;31446;49.632;8.328;2023-05-15T08:16:27;18.60;99.90
45735;DHT22;31446;49.632;8.328;2023-05-15T08:31:34;18.60;99.90
45735;DHT22;31446;49.632;8.328;2023-05-15T08:46:41;19.30;99.90
45735;DHT22;31446;49.632;8.328;2023-05-15T09:01:47;19.00;99.90
45735;DHT22;31446;49.632;8.328;2023-05-15T09:16:54;19.40;99.90
45735;DHT22;31446;49.632;8.328;2023-05-15T09:32:06;20.90;99.90
45735;DHT22;31446;49.632;8.328;2023-05-15T09:47:13;21.00;99.90
45735;DHT22;31446;49.632;8.328;2023-05-15T10:02:28;20.40;99.90
45735;DHT22;31446;49.632;8.328;2023-05-15T10:17:34;21.50;99.90
45735;DHT22;31446;49.632;8.328;2023-05-15T10:32:43;21.10;99.90
45735;DHT22;31446;49.632;8.328;2023-05-15T10:47:50;21.30;99.90
45735;DHT22;31446;49.632;8.328;2023-05-15T11:02:57;22.00;99.90
45735;DHT22;31446;49.632;8.328;2023-05-15T11:18:05;22.10;99.90
45735;DHT22;31446;49.632;8.328;2023-05-15T11:33:12;22.20;99.90
45735;DHT22;31446;49.632;8.328;2023-05-15T11:48:18;22.30;99.90
45735;DHT22;31446;49.632;8.328;2023-05-15T12:03:30;22.50;99.90
45735;DHT22;31446;49.632;8.328;2023-05-15T12:18:36;22.10;99.90
45735;DHT22;31446;49.632;8.328;2023-05-15T12:33:43;21.70;99.90
45735;DHT22;31446;49.632;8.328;2023-05-15T12:48:49;23.30;99.90
45735;DHT22;31446;49.632;8.328;2023-05-15T13:03:55;23.80;98.50
45735;DHT22;31446;49.632;8.328;2023-05-15T13:19:01;23.00;93.40
45735;DHT22;31446;49.632;8.328;2023-05-15T13:34:07;23.80;93.30
45735;DHT22;31446;49.632;8.328;2023-05-15T13:49:13;23.20;93.10
45735;DHT22;31446;49.632;8.328;2023-05-15T14:04:20;23.40;91.90
45735;DHT22;31446;49.632;8.328;2023-05-15T14:19:26;23.40;90.70
45735;DHT22;31446;49.632;8.328;2023-05-15T14:34:32;23.70;90.80
45735;DHT22;31446;49.632;8.328;2023-05-15T14:49:39;23.70;86.70
45735;DHT22;31446;49.632;8.328;2023-05-15T15:04:45;23.70;90.60
45735;DHT22;31446;49.632;8.328;2023-05-15T15:19:51;23.90;91.60
45735;DHT22;31446;49.632;8.328;2023-05-15T15:34:58;21.80;96.60
45735;DHT22;31446;49.632;8.328;2023-05-15T15:50:04;21.10;97.50
45735;DHT22;31446;49.632;8.328;2023-05-15T16:05:11;20.50;96.40
45735;DHT22;31446;49.632;8.328;2023-05-15T16:20:17;20.10;95.40
45735;DHT22;31446;49.632;8.328;2023-05-15T16:35:24;19.70;96.60
45735;DHT22;31446;49.632;8.328;2023-05-15T16:50:31;19.60;95.30
45735;DHT22;31446;49.632;8.328;2023-05-15T17:05:37;19.60;96.40
45735;DHT22;31446;49.632;8.328;2023-05-15T17:20:43;22.00;94.70
45735;DHT22;31446;49.632;8.328;2023-05-15T17:35:49;22.30;94.00
45735;DHT22;31446;49.632;8.328;2023-05-15T17:50:55;20.20;94.80
45735;DHT22;31446;49.632;8.328;2023-05-15T18:06:01;19.70;96.20
45735;DHT22;31446;49.632;8.328;2023-05-15T18:21:08;19.30;95.90
45735;DHT22;31446;49.632;8.328;2023-05-15T18:36:14;18.80;98.40
45735;DHT22;31446;49.632;8.328;2023-05-15T18:51:21;17.30;99.90
45735;DHT22;31446;49.632;8.328;2023-05-15T19:06:27;15.60;99.90
45735;DHT22;31446;49.632;8.328;2023-05-15T19:21:35;14.90;99.90
45735;DHT22;31446;49.632;8.328;2023-05-15T19:36:42;14.80;99.90
45735;DHT22;31446;49.632;8.328;2023-05-15T19:51:48;14.80;99.90
45735;DHT22;31446;49.632;8.328;2023-05-15T20:06:55;14.80;99.90
45735;DHT22;31446;49.632;8.328;2023-05-15T20:22:03;15.10;99.90
45735;DHT22;31446;49.632;8.328;2023-05-15T20:37:11;14.70;99.90
45735;DHT22;31446;49.632;8.328;2023-05-15T20:52:18;14.60;99.90
45735;DHT22;31446;49.632;8.328;2023-05-15T21:07:24;14.60;99.90
45735;DHT22;31446;49.632;8.328;2023-05-15T21:22:30;14.50;99.90
45735;DHT22;31446;49.632;8.328;2023-05-15T21:37:36;14.30;99.90
45735;DHT22;31446;49.632;8.328;2023-05-15T21:52:43;14.20;99.90
45735;DHT22;31446;49.632;8.328;2023-05-15T22:07:49;13.90;99.90
45735;DHT22;31446;49.632;8.328;2023-05-15T22:22:55;13.60;99.90
45735;DHT22;31446;49.632;8.328;2023-05-15T22:38:01;13.50;99.90
45735;DHT22;31446;49.632;8.328;2023-05-15T22:53:09;13.40;99.90
45735;DHT22;31446;49.632;8.328;2023-05-15T23:08:16;13.20;99.90
45735;DHT22;31446;49.632;8.328;2023-05-15T23:23:22;13.20;99.90
45735;DHT22;31446;49.632;8.328;2023-05-15T23:38:29;13.30;99.90
45735;DHT22;31446;49.632;8.328;2023-05-15T23:53:35;13.20;99.90
